Time;durP1;ratioP1;P1;durP2;ratioP2;P2;SDS_P1;SDS_P2;PMS_P1;PMS_P2;Temp;Humidity;BMP_temperature;BMP_pressure;BME280_temperature;BME280_humidity;BME280_pressure;Samples;Min_cycle;Max_cycle;Signal;HPM_P1;HPM_P2
2021/03/03 00:01:35;;;;;;;22.13;16.65;;;4.30;99.90;;;;;;4997153;28;20058;-68
2021/03/03 00:04:02;;;;;;;22.23;16.33;;;4.30;99.90;;;;;;4991157;28;20065;-69
2021/03/03 00:06:29;;;;;;;21.38;17.02;;;4.20;99.90;;;;;;4986208;28;20420;-69
2021/03/03 00:08:57;;;;;;;19.52;15.02;;;4.20;99.90;;;;;;4981450;28;20059;-69
2021/03/03 00:11:25;;;;;;;20.80;15.35;;;4.20;99.90;;;;;;4986906;28;20417;-69
2021/03/03 00:13:52;;;;;;;20.90;16.13;;;4.10;99.90;;;;;;4992994;28;20049;-68
2021/03/03 00:16:19;;;;;;;22.85;15.20;;;4.10;99.90;;;;;;4994407;28;20104;-68
2021/03/03 00:18:46;;;;;;;19.73;16.13;;;4.10;99.90;;;;;;4992766;28;20054;-68
2021/03/03 00:21:13;;;;;;;18.83;16.10;;;4.00;99.90;;;;;;4994139;28;20050;-69
2021/03/03 00:23:40;;;;;;;22.58;16.08;;;4.00;99.90;;;;;;4994213;28;20070;-69
2021/03/03 00:26:07;;;;;;;20.25;15.10;;;4.00;99.90;;;;;;4993184;28;20553;-68
2021/03/03 00:28:33;;;;;;;18.42;14.85;;;4.00;99.90;;;;;;4994384;28;20050;-68
2021/03/03 00:31:01;;;;;;;19.50;15.18;;;3.90;99.90;;;;;;4992754;28;20048;-68
2021/03/03 00:33:28;;;;;;;20.77;15.25;;;3.90;99.90;;;;;;4989517;28;20489;-68
2021/03/03 00:35:54;;;;;;;18.60;14.77;;;3.90;99.90;;;;;;4993309;28;20053;-68
2021/03/03 00:38:21;;;;;;;20.67;14.77;;;3.90;99.90;;;;;;4984855;28;20107;-67
2021/03/03 00:40:48;;;;;;;20.20;15.20;;;3.80;99.90;;;;;;4992589;28;20137;-68
2021/03/03 00:43:15;;;;;;;18.98;14.35;;;3.80;99.90;;;;;;5000506;28;20042;-67
2021/03/03 00:45:41;;;;;;;18.58;14.70;;;3.70;99.90;;;;;;4993103;28;20130;-68
2021/03/03 00:48:09;;;;;;;20.17;14.68;;;3.80;99.90;;;;;;4994147;28;20042;-68
2021/03/03 00:50:36;;;;;;;17.85;14.32;;;3.70;99.90;;;;;;4994099;28;20507;-68
2021/03/03 00:53:08;;;;;;;20.70;13.98;;;3.70;99.90;;;;;;4993929;28;20397;-69
2021/03/03 00:55:35;;;;;;;;;;;3.70;99.90;;;;;;4991186;28;20485;-67
2021/03/03 00:58:02;;;;;;;21.52;13.93;;;3.70;99.90;;;;;;4989050;28;20008;-68
2021/03/03 01:00:35;;;;;;;22.70;14.82;;;3.70;99.90;;;;;;4998754;28;20056;-68
2021/03/03 01:03:03;;;;;;;19.83;14.05;;;3.60;99.90;;;;;;4993373;28;20046;-68
2021/03/03 01:05:30;;;;;;;20.77;14.27;;;3.60;99.90;;;;;;4993759;28;20472;-68
2021/03/03 01:07:57;;;;;;;21.80;13.65;;;3.60;99.90;;;;;;4989726;28;20047;-68
2021/03/03 01:10:24;;;;;;;21.25;14.65;;;3.60;99.90;;;;;;4993520;28;20093;-68
2021/03/03 01:12:51;;;;;;;20.80;14.30;;;3.50;99.90;;;;;;4985557;28;20056;-68
2021/03/03 01:15:18;;;;;;;21.48;13.98;;;3.50;99.90;;;;;;4992998;28;20066;-68
2021/03/03 01:17:45;;;;;;;19.50;14.05;;;3.50;99.90;;;;;;4999375;28;20054;-68
2021/03/03 01:20:13;;;;;;;19.23;14.93;;;3.40;99.90;;;;;;4987571;28;20469;-68
2021/03/03 01:22:39;;;;;;;20.48;14.98;;;3.40;99.90;;;;;;4993113;28;20052;-67
2021/03/03 01:25:07;;;;;;;20.92;14.40;;;3.40;99.90;;;;;;4993466;28;20056;-67
2021/03/03 01:27:34;;;;;;;18.92;14.23;;;3.40;99.90;;;;;;4992789;28;20054;-67
2021/03/03 01:30:01;;;;;;;20.60;14.57;;;3.40;99.90;;;;;;4993623;28;20050;-68
2021/03/03 01:32:28;;;;;;;22.02;14.25;;;3.40;99.90;;;;;;4986507;28;20054;-68
2021/03/03 01:34:55;;;;;;;20.90;14.48;;;3.40;99.90;;;;;;4993320;28;20108;-68
2021/03/03 01:37:22;;;;;;;20.83;14.43;;;3.40;99.90;;;;;;4992582;28;20523;-68
2021/03/03 01:39:49;;;;;;;22.77;15.15;;;3.30;99.90;;;;;;4993571;28;20385;-68
2021/03/03 01:42:16;;;;;;;23.15;14.77;;;3.30;99.90;;;;;;4987297;28;20104;-67
2021/03/03 01:44:43;;;;;;;19.63;14.68;;;3.30;99.90;;;;;;4992255;28;20085;-67
2021/03/03 01:47:10;;;;;;;23.63;14.27;;;3.30;99.90;;;;;;4987343;28;20473;-67
2021/03/03 01:49:37;;;;;;;17.95;13.88;;;3.20;99.90;;;;;;4993274;28;20051;-68
2021/03/03 01:52:06;;;;;;;15.35;12.77;;;3.10;99.90;;;;;;4992642;28;20160;-68
2021/03/03 01:54:33;;;;;;;19.58;14.23;;;3.10;99.90;;;;;;4992320;28;20478;-68
2021/03/03 01:57:02;;;;;;;19.67;14.40;;;3.00;99.90;;;;;;4992473;28;20050;-69
2021/03/03 01:59:29;;;;;;;17.92;14.18;;;3.00;99.90;;;;;;4987693;28;20056;-68
2021/03/03 02:01:56;;;;;;;20.08;13.80;;;2.90;99.90;;;;;;4994637;28;20055;-67
2021/03/03 02:04:24;;;;;;;19.67;14.48;;;2.80;99.90;;;;;;4987029;28;20046;-68
2021/03/03 02:07:20;;;;;;;20.13;14.15;;;2.80;99.90;;;;;;4995537;28;20058;-68
2021/03/03 02:10:02;;;;;;;22.70;14.65;;;2.80;99.90;;;;;;4991512;28;20086;-67
2021/03/03 02:12:45;;;;;;;17.40;13.57;;;2.80;99.90;;;;;;4981746;28;20554;-68
2021/03/03 02:15:13;;;;;;;17.70;13.43;;;2.70;99.90;;;;;;4986355;28;20073;-69
2021/03/03 02:17:43;;;;;;;22.13;14.52;;;2.70;99.90;;;;;;4992778;28;20536;-68
2021/03/03 02:20:22;;;;;;;17.42;12.88;;;2.70;99.90;;;;;;4992610;28;20101;-68
2021/03/03 02:23:12;;;;;;;19.30;14.10;;;2.70;99.90;;;;;;4988668;28;20096;-68
2021/03/03 02:25:40;;;;;;;20.27;13.35;;;2.70;99.90;;;;;;4992579;28;20134;-69
2021/03/03 02:28:10;;;;;;;18.92;13.52;;;2.70;99.90;;;;;;4986563;28;20094;-69
2021/03/03 02:30:39;;;;;;;18.33;13.60;;;2.70;99.90;;;;;;4992490;28;20120;-69
2021/03/03 02:33:09;;;;;;;19.23;13.52;;;2.70;99.90;;;;;;4991739;28;20097;-68
2021/03/03 02:35:36;;;;;;;20.77;13.55;;;2.60;99.90;;;;;;5001029;28;20460;-68
2021/03/03 02:38:04;;;;;;;19.15;13.40;;;2.60;99.90;;;;;;4992053;28;20395;-69
2021/03/03 02:40:31;;;;;;;21.92;13.65;;;2.60;99.90;;;;;;4991887;28;20101;-68
2021/03/03 02:42:59;;;;;;;20.15;14.30;;;2.60;99.90;;;;;;4990877;28;20062;-68
2021/03/03 02:45:29;;;;;;;21.90;14.18;;;2.60;99.90;;;;;;4989877;28;20052;-69
2021/03/03 02:47:56;;;;;;;20.85;13.95;;;2.60;99.90;;;;;;4990356;28;20042;-69
2021/03/03 02:50:23;;;;;;;19.85;13.43;;;2.60;99.90;;;;;;4989912;28;20054;-68
2021/03/03 02:52:53;;;;;;;18.65;13.18;;;2.60;99.90;;;;;;4991471;28;20069;-68
2021/03/03 02:55:22;;;;;;;18.67;12.82;;;2.60;99.90;;;;;;4991566;28;20058;-69
2021/03/03 02:57:49;;;;;;;17.40;13.40;;;2.60;99.90;;;;;;4991601;28;20050;-68
2021/03/03 03:00:21;;;;;;;21.27;13.90;;;2.60;99.90;;;;;;4996949;28;20395;-68
2021/03/03 03:02:49;;;;;;;;;;;2.60;99.90;;;;;;4991506;28;20046;-70
2021/03/03 03:05:17;;;;;;;20.63;13.18;;;2.60;99.90;;;;;;4990193;28;20019;-68
2021/03/03 03:07:51;;;;;;;20.33;13.18;;;2.50;99.90;;;;;;4991772;28;20408;-68
2021/03/03 03:10:20;;;;;;;19.42;13.20;;;2.60;99.90;;;;;;4991080;28;20058;-67
2021/03/03 03:12:51;;;;;;;22.77;14.45;;;2.50;99.90;;;;;;4991907;28;20519;-69
2021/03/03 03:15:22;;;;;;;23.10;14.13;;;2.50;99.90;;;;;;4991170;28;20050;-68
2021/03/03 03:17:54;;;;;;;19.45;14.15;;;2.50;99.90;;;;;;4990399;28;20062;-68
2021/03/03 03:20:21;;;;;;;19.67;13.13;;;2.50;99.90;;;;;;4991688;28;20051;-68
2021/03/03 03:22:48;;;;;;;20.98;13.85;;;2.50;99.90;;;;;;4987444;28;20042;-67
2021/03/03 03:25:16;;;;;;;22.67;13.60;;;2.50;99.90;;;;;;4990807;28;20051;-68
2021/03/03 03:27:44;;;;;;;18.75;13.48;;;2.50;99.90;;;;;;4989929;28;20046;-68
2021/03/03 03:30:15;;;;;;;21.95;13.23;;;2.50;99.90;;;;;;4990571;28;20058;-67
2021/03/03 03:32:42;;;;;;;21.85;13.90;;;2.50;99.90;;;;;;4991199;28;20497;-68
2021/03/03 03:35:10;;;;;;;21.90;13.88;;;2.40;99.90;;;;;;4990474;28;20081;-67
2021/03/03 03:37:39;;;;;;;21.55;13.18;;;2.40;99.90;;;;;;4990293;28;20050;-69
2021/03/03 03:40:06;;;;;;;19.08;12.70;;;2.30;99.90;;;;;;4984087;28;20485;-68
2021/03/03 03:42:33;;;;;;;23.45;13.50;;;2.30;99.90;;;;;;4988052;28;20054;-68
2021/03/03 03:45:01;;;;;;;21.50;13.95;;;2.30;99.90;;;;;;4985873;28;20049;-68
2021/03/03 03:47:28;;;;;;;16.15;12.88;;;2.20;99.90;;;;;;4991224;28;20052;-68
2021/03/03 03:49:55;;;;;;;19.67;14.05;;;2.20;99.90;;;;;;4990805;28;20501;-68
2021/03/03 03:52:22;;;;;;;23.10;14.95;;;2.20;99.90;;;;;;4991132;28;20054;-68
2021/03/03 03:54:53;;;;;;;22.33;15.25;;;2.20;99.90;;;;;;4989238;28;20054;-68
2021/03/03 03:57:21;;;;;;;22.48;14.18;;;2.20;99.90;;;;;;4991670;28;20050;-68
2021/03/03 03:59:47;;;;;;;22.85;14.55;;;2.20;99.90;;;;;;4980671;28;20046;-68
2021/03/03 04:02:14;;;;;;;22.05;13.82;;;2.20;99.90;;;;;;4991057;28;20455;-68
2021/03/03 04:04:42;;;;;;;21.98;14.07;;;2.10;99.90;;;;;;4990763;28;20061;-68
2021/03/03 04:07:08;;;;;;;25.02;14.40;;;2.10;99.90;;;;;;4995088;28;20057;-68
2021/03/03 04:09:35;;;;;;;21.13;13.98;;;2.00;99.90;;;;;;4976330;28;20625;-67
2021/03/03 04:12:02;;;;;;;25.75;15.70;;;2.00;99.90;;;;;;4987977;28;20061;-68
2021/03/03 04:14:29;;;;;;;25.73;14.52;;;2.00;99.90;;;;;;4977826;28;20058;-68
2021/03/03 04:16:55;;;;;;;23.27;15.10;;;2.00;99.90;;;;;;4989139;28;20054;-68
2021/03/03 04:19:22;;;;;;;22.83;15.05;;;1.90;99.90;;;;;;4981576;28;20077;-68
2021/03/03 04:21:48;;;;;;;28.10;15.13;;;1.90;99.90;;;;;;4990442;28;20330;-68
2021/03/03 04:24:15;;;;;;;25.92;15.27;;;1.90;99.90;;;;;;4991279;28;20050;-68
2021/03/03 04:26:41;;;;;;;25.02;14.65;;;1.90;99.90;;;;;;4990023;28;20054;-68
2021/03/03 04:29:08;;;;;;;27.00;15.38;;;2.00;99.90;;;;;;4991042;28;20039;-68
2021/03/03 04:31:35;;;;;;;27.00;15.43;;;2.00;99.90;;;;;;4981238;28;20072;-68
2021/03/03 04:34:01;;;;;;;28.65;15.52;;;2.10;99.90;;;;;;4992192;28;20086;-68
2021/03/03 04:36:28;;;;;;;28.17;16.25;;;2.10;99.90;;;;;;4992497;28;20057;-68
2021/03/03 04:38:54;;;;;;;26.98;14.73;;;2.10;99.90;;;;;;4993730;28;20057;-68
2021/03/03 04:41:21;;;;;;;29.35;15.40;;;2.10;99.90;;;;;;4992589;28;20046;-68
2021/03/03 04:43:47;;;;;;;23.25;14.40;;;2.20;99.90;;;;;;4994733;28;20080;-70
2021/03/03 04:46:13;;;;;;;21.58;13.95;;;2.10;99.90;;;;;;4993047;28;20411;-68
2021/03/03 04:48:40;;;;;;;25.67;15.93;;;2.10;99.90;;;;;;4981305;28;20051;-67
2021/03/03 04:51:07;;;;;;;25.83;15.77;;;2.10;99.90;;;;;;4993919;28;20082;-69
2021/03/03 04:53:33;;;;;;;21.88;14.55;;;2.10;99.90;;;;;;4995081;28;20050;-69
2021/03/03 04:56:00;;;;;;;25.23;14.10;;;2.10;99.90;;;;;;4994349;28;20057;-69
2021/03/03 04:58:26;;;;;;;24.88;14.68;;;2.10;99.90;;;;;;4995083;28;20222;-68
2021/03/03 05:00:53;;;;;;;26.23;15.82;;;2.10;99.90;;;;;;4999594;28;20230;-69
2021/03/03 05:03:33;;;;;;;26.73;15.02;;;2.10;99.90;;;;;;4993653;28;20104;-68
2021/03/03 05:06:05;;;;;;;23.15;15.52;;;2.10;99.90;;;;;;4991362;28;20046;-67
2021/03/03 05:08:31;;;;;;;27.35;16.20;;;2.00;99.90;;;;;;4981529;28;20043;-68
2021/03/03 05:10:58;;;;;;;28.75;16.45;;;2.00;99.90;;;;;;4988365;28;20063;-67
2021/03/03 05:13:24;;;;;;;27.92;15.82;;;2.00;99.90;;;;;;4992375;28;20046;-68
2021/03/03 05:15:50;;;;;;;24.85;14.63;;;2.00;99.90;;;;;;4993994;28;20137;-68
2021/03/03 05:18:17;;;;;;;23.05;14.85;;;2.00;99.90;;;;;;4992351;28;20511;-68
2021/03/03 05:20:44;;;;;;;29.83;15.60;;;2.00;99.90;;;;;;4993585;28;20047;-67
2021/03/03 05:23:11;;;;;;;26.63;15.60;;;2.00;99.90;;;;;;4993210;28;20485;-68
2021/03/03 05:25:38;;;;;;;27.40;15.55;;;2.00;99.90;;;;;;4993909;28;20058;-68
2021/03/03 05:28:04;;;;;;;35.60;19.45;;;2.00;99.90;;;;;;4993567;28;20057;-68
2021/03/03 05:30:31;;;;;;;24.85;15.95;;;2.10;99.90;;;;;;4993035;28;20133;-68
2021/03/03 05:32:57;;;;;;;30.88;15.85;;;2.10;99.90;;;;;;4991407;28;20058;-68
2021/03/03 05:35:25;;;;;;;24.30;14.85;;;2.10;99.90;;;;;;4991583;28;20066;-68
2021/03/03 05:37:51;;;;;;;27.63;17.38;;;2.00;99.90;;;;;;4993012;28;20057;-68
2021/03/03 05:40:18;;;;;;;27.65;16.75;;;2.10;99.90;;;;;;4998282;28;20058;-67
2021/03/03 05:42:44;;;;;;;27.40;15.98;;;2.10;99.90;;;;;;4993234;28;20477;-68
2021/03/03 05:45:11;;;;;;;26.08;16.17;;;2.20;99.90;;;;;;4990068;28;20492;-68
2021/03/03 05:47:39;;;;;;;24.42;15.35;;;2.20;99.90;;;;;;4992217;28;20085;-68
2021/03/03 05:50:07;;;;;;;25.08;15.07;;;2.30;99.90;;;;;;4993086;28;20129;-68
2021/03/03 05:52:34;;;;;;;25.25;15.27;;;2.30;99.90;;;;;;4992882;28;20061;-68
2021/03/03 05:55:06;;;;;;;24.90;15.63;;;2.30;99.90;;;;;;4987213;28;20416;-68
2021/03/03 05:57:32;;;;;;;24.50;15.40;;;2.40;99.90;;;;;;4989311;28;20133;-68
2021/03/03 06:00:02;;;;;;;26.70;15.65;;;2.40;99.90;;;;;;4995136;28;20042;-68
2021/03/03 06:02:30;;;;;;;23.67;15.90;;;2.40;99.90;;;;;;4990407;28;20042;-68
2021/03/03 06:04:57;;;;;;;32.75;16.13;;;2.40;99.90;;;;;;4993075;28;20046;-68
2021/03/03 06:07:23;;;;;;;25.58;16.40;;;2.50;99.90;;;;;;4992282;28;20050;-68
2021/03/03 06:09:50;;;;;;;25.92;15.13;;;2.60;99.90;;;;;;4988839;28;20062;-68
2021/03/03 06:12:16;;;;;;;29.50;16.38;;;2.60;99.90;;;;;;4983549;28;20484;-68
2021/03/03 06:14:43;;;;;;;31.23;17.92;;;2.60;99.90;;;;;;4992210;28;20857;-68
2021/03/03 06:17:09;;;;;;;36.85;21.10;;;2.70;99.90;;;;;;4987729;28;20046;-68
2021/03/03 06:19:36;;;;;;;33.00;19.75;;;2.80;99.90;;;;;;4992021;28;20452;-68
2021/03/03 06:22:26;;;;;;;32.13;17.15;;;2.90;99.90;;;;;;4991761;28;20054;-67
2021/03/03 06:24:57;;;;;;;27.33;16.52;;;3.00;99.90;;;;;;4990262;28;20061;-67
2021/03/03 06:27:24;;;;;;;29.80;17.33;;;3.10;99.90;;;;;;4991646;28;20054;-67
2021/03/03 06:30:11;;;;;;;27.60;17.58;;;3.10;99.90;;;;;;4990940;28;20055;-68
2021/03/03 06:32:58;;;;;;;33.60;19.45;;;3.20;99.90;;;;;;4988191;28;20050;-68
2021/03/03 06:35:42;;;;;;;30.75;18.45;;;3.30;99.90;;;;;;4992023;28;20198;-68
2021/03/03 06:38:11;;;;;;;44.67;23.55;;;3.40;99.90;;;;;;4983724;28;20043;-67
2021/03/03 06:40:59;;;;;;;34.80;19.60;;;3.50;99.90;;;;;;4992180;28;20057;-68
2021/03/03 06:43:29;;;;;;;30.60;18.13;;;3.60;99.90;;;;;;4984971;28;20496;-68
2021/03/03 06:45:56;;;;;;;29.77;18.40;;;3.60;99.90;;;;;;4989937;28;20050;-67
2021/03/03 06:48:40;;;;;;;34.20;18.80;;;3.60;99.90;;;;;;4991404;28;20069;-68
2021/03/03 06:51:26;;;;;;;32.70;18.88;;;3.70;99.90;;;;;;4990741;28;20060;-68
2021/03/03 06:53:55;;;;;;;33.45;18.67;;;3.80;99.90;;;;;;4985944;28;20054;-67
2021/03/03 06:56:52;;;;;;;32.30;19.65;;;3.90;99.90;;;;;;4990099;28;20065;-68
2021/03/03 06:59:25;;;;;;;32.00;19.65;;;4.00;99.90;;;;;;4989455;28;20058;-68
2021/03/03 07:01:56;;;;;;;32.55;18.60;;;4.10;99.90;;;;;;4983035;28;20035;-67
2021/03/03 07:04:26;;;;;;;41.90;19.83;;;4.10;99.90;;;;;;4994093;28;20136;-67
2021/03/03 07:07:01;;;;;;;33.72;19.23;;;4.30;99.90;;;;;;4994645;28;20054;-68
2021/03/03 07:09:57;;;;;;;28.50;18.73;;;4.40;99.90;;;;;;5010027;28;20050;-68
2021/03/03 07:12:30;;;;;;;37.92;19.00;;;4.50;99.90;;;;;;4987091;28;20054;-67
2021/03/03 07:15:03;;;;;;;37.80;20.20;;;4.50;99.90;;;;;;4989082;28;20182;-67
2021/03/03 07:17:39;;;;;;;31.20;19.58;;;4.60;99.90;;;;;;4990576;28;20049;-68
2021/03/03 07:20:09;;;;;;;32.17;19.90;;;4.60;99.90;;;;;;4986794;28;20042;-68
2021/03/03 07:22:37;;;;;;;37.15;20.27;;;4.70;99.90;;;;;;4989182;28;20054;-68
2021/03/03 07:25:08;;;;;;;32.55;20.30;;;4.80;99.90;;;;;;4992628;28;20401;-67
2021/03/03 07:27:36;;;;;;;36.80;21.90;;;4.90;99.90;;;;;;4992331;28;20050;-69
2021/03/03 07:30:07;;;;;;;40.47;22.85;;;5.00;99.90;;;;;;4993882;28;20053;-67
2021/03/03 07:32:37;;;;;;;33.60;20.98;;;5.10;99.90;;;;;;4981691;28;20053;-67
2021/03/03 07:35:23;;;;;;;34.38;20.63;;;5.20;99.90;;;;;;4993980;28;20499;-67
2021/03/03 07:37:57;;;;;;;35.63;21.35;;;5.20;99.90;;;;;;4994931;28;20054;-69
2021/03/03 07:40:26;;;;;;;35.22;20.77;;;5.30;99.90;;;;;;4996677;28;20057;-68
2021/03/03 07:42:54;;;;;;;38.70;22.73;;;5.40;99.90;;;;;;4999132;28;20047;-68
2021/03/03 07:45:22;;;;;;;38.17;22.45;;;5.40;99.90;;;;;;4981088;28;20098;-67
2021/03/03 07:47:50;;;;;;;38.63;22.63;;;5.60;99.90;;;;;;4984268;28;20050;-68
2021/03/03 07:50:19;;;;;;;36.63;21.63;;;5.50;99.90;;;;;;4988351;28;20390;-68
2021/03/03 07:52:49;;;;;;;39.67;22.38;;;5.70;99.90;;;;;;4985038;28;20047;-68
2021/03/03 07:55:16;;;;;;;49.03;23.60;;;5.70;99.90;;;;;;4991162;28;20484;-68
2021/03/03 07:58:05;;;;;;;36.85;22.90;;;5.80;99.90;;;;;;4991515;28;20416;-68
2021/03/03 08:00:35;;;;;;;39.55;23.73;;;6.00;99.90;;;;;;4989893;28;20128;-68
2021/03/03 08:03:03;;;;;;;36.22;21.83;;;6.10;99.90;;;;;;4990001;28;20057;-68
2021/03/03 08:05:49;;;;;;;41.65;22.90;;;6.20;99.90;;;;;;4982415;28;20054;-67
2021/03/03 08:08:29;;;;;;;41.35;23.45;;;6.40;99.90;;;;;;4994537;28;20049;-68
2021/03/03 08:10:59;;;;;;;40.08;24.20;;;6.50;99.90;;;;;;4992095;28;20481;-67
2021/03/03 08:13:36;;;;;;;38.75;23.92;;;6.60;99.90;;;;;;4994916;28;20051;-68
2021/03/03 08:16:04;;;;;;;47.58;24.88;;;6.60;99.90;;;;;;4988420;28;20073;-68
2021/03/03 08:18:34;;;;;;;45.50;25.17;;;6.70;99.90;;;;;;4995104;28;20050;-68
2021/03/03 08:21:08;;;;;;;37.55;24.48;;;6.80;99.90;;;;;;4994610;28;20137;-68
2021/03/03 08:23:34;;;;;;;43.53;25.45;;;6.90;99.90;;;;;;4989572;28;20397;-68
2021/03/03 08:26:03;;;;;;;45.85;25.48;;;7.00;99.90;;;;;;4993331;28;20047;-68
2021/03/03 08:28:37;;;;;;;40.38;25.55;;;7.10;99.90;;;;;;4994735;28;20506;-68
2021/03/03 08:31:10;;;;;;;40.45;24.25;;;7.30;99.90;;;;;;4991643;28;20042;-68
2021/03/03 08:33:38;;;;;;;38.33;24.25;;;7.40;99.90;;;;;;4992614;28;20050;-68
2021/03/03 08:36:23;;;;;;;38.90;23.67;;;7.40;99.90;;;;;;4986940;28;20519;-68
2021/03/03 08:38:56;;;;;;;36.88;24.63;;;7.60;99.90;;;;;;4994419;28;20538;-67
2021/03/03 08:41:26;;;;;;;43.42;24.17;;;7.70;99.90;;;;;;4994328;28;20111;-67
2021/03/03 08:44:14;;;;;;;44.45;25.00;;;7.80;99.90;;;;;;4986446;28;20101;-68
2021/03/03 08:46:41;;;;;;;46.92;24.33;;;8.00;99.90;;;;;;4994094;28;20055;-68
2021/03/03 08:49:07;;;;;;;36.42;23.67;;;8.00;99.90;;;;;;4982716;28;20046;-67
2021/03/03 08:51:35;;;;;;;41.42;23.95;;;8.10;99.90;;;;;;4986834;28;20054;-67
2021/03/03 08:54:05;;;;;;;36.65;24.00;;;8.10;99.90;;;;;;4994362;28;20058;-69
2021/03/03 08:56:53;;;;;;;36.70;23.40;;;8.20;99.90;;;;;;4988193;28;20051;-69
2021/03/03 08:59:33;;;;;;;38.97;24.40;;;8.40;99.90;;;;;;4991636;28;20066;-68
2021/03/03 09:02:15;;;;;;;37.95;23.65;;;8.60;99.90;;;;;;4975692;28;20050;-67
2021/03/03 09:04:46;;;;;;;38.38;23.05;;;8.80;99.90;;;;;;4995091;28;20042;-69
2021/03/03 09:07:23;;;;;;;42.72;25.20;;;8.90;99.90;;;;;;4976688;28;20065;-68
2021/03/03 09:09:59;;;;;;;37.38;23.23;;;9.00;99.90;;;;;;4981146;28;20054;-67
2021/03/03 09:12:29;;;;;;;38.15;24.55;;;9.10;99.90;;;;;;4991612;28;20056;-68
2021/03/03 09:14:58;;;;;;;46.85;25.30;;;9.20;99.90;;;;;;4993027;28;20072;-68
2021/03/03 09:17:27;;;;;;;47.10;25.75;;;9.40;99.90;;;;;;4990065;28;20059;-68
2021/03/03 09:19:58;;;;;;;41.95;25.45;;;9.40;99.90;;;;;;4990869;28;20430;-68
2021/03/03 09:22:28;;;;;;;37.35;25.65;;;9.50;99.90;;;;;;4990752;28;20076;-68
2021/03/03 09:25:29;;;;;;;44.50;25.85;;;9.60;99.90;;;;;;4993847;28;20053;-68
2021/03/03 09:27:58;;;;;;;37.95;25.85;;;9.70;99.90;;;;;;4989078;28;20528;-69
2021/03/03 09:30:26;;;;;;;44.00;26.52;;;9.80;99.90;;;;;;4990696;28;20077;-68
2021/03/03 09:32:55;;;;;;;35.92;25.42;;;9.80;99.90;;;;;;4990362;28;20078;-68
2021/03/03 09:35:32;;;;;;;44.42;27.45;;;9.80;99.90;;;;;;4989984;28;20054;-68
2021/03/03 09:37:59;;;;;;;41.95;26.83;;;9.90;99.90;;;;;;4989268;28;20429;-68
2021/03/03 09:40:30;;;;;;;41.42;26.17;;;10.00;99.90;;;;;;4990318;28;20043;-68
2021/03/03 09:42:58;;;;;;;38.47;24.70;;;10.00;99.90;;;;;;4990434;28;20394;-68
2021/03/03 09:45:26;;;;;;;41.92;25.67;;;10.20;99.90;;;;;;4988552;28;20568;-69
2021/03/03 09:47:55;;;;;;;40.70;26.42;;;10.30;99.90;;;;;;4990455;28;20053;-68
2021/03/03 09:50:28;;;;;;;43.42;27.05;;;10.40;99.90;;;;;;4988375;28;20065;-69
2021/03/03 09:52:58;;;;;;;;;;;10.50;99.90;;;;;;4990165;28;20042;-69
2021/03/03 09:55:33;;;;;;;49.78;30.08;;;10.60;99.90;;;;;;4989304;28;20418;-69
2021/03/03 09:58:02;;;;;;;46.45;31.45;;;10.80;99.90;;;;;;4990347;28;20050;-68
2021/03/03 10:00:33;;;;;;;45.83;29.75;;;11.00;99.90;;;;;;4990760;28;20046;-68
2021/03/03 10:03:04;;;;;;;41.22;26.65;;;11.20;99.90;;;;;;4991062;28;20089;-68
2021/03/03 10:05:33;;;;;;;38.55;27.45;;;11.10;99.90;;;;;;4985137;28;20042;-68
2021/03/03 10:08:02;;;;;;;46.22;29.13;;;11.00;99.90;;;;;;4992040;28;20148;-69
2021/03/03 10:10:34;;;;;;;41.25;27.52;;;11.10;99.90;;;;;;4990707;28;20470;-69
2021/03/03 10:13:01;;;;;;;46.03;28.95;;;11.20;99.90;;;;;;4991932;28;20054;-69
2021/03/03 10:15:38;;;;;;;40.70;28.05;;;11.40;99.90;;;;;;4991405;28;20058;-69
2021/03/03 10:18:11;;;;;;;41.35;28.10;;;11.20;99.90;;;;;;4978979;28;20097;-69
2021/03/03 10:20:43;;;;;;;46.08;32.13;;;11.30;99.90;;;;;;4990557;28;20050;-69
2021/03/03 10:23:16;;;;;;;50.03;32.17;;;11.40;99.90;;;;;;4991811;28;20042;-69
2021/03/03 10:25:52;;;;;;;46.92;30.55;;;11.50;99.90;;;;;;4996781;28;20046;-69
2021/03/03 10:28:21;;;;;;;43.63;28.25;;;11.70;99.90;;;;;;4990995;28;20529;-69
2021/03/03 10:30:53;;;;;;;35.35;26.77;;;11.80;99.90;;;;;;4981778;28;20056;-69
2021/03/03 10:33:35;;;;;;;39.57;28.43;;;11.70;99.90;;;;;;4984924;28;20066;-69
2021/03/03 10:36:06;;;;;;;41.72;29.20;;;11.70;99.90;;;;;;4999910;28;20055;-69
2021/03/03 10:38:37;;;;;;;42.45;28.67;;;11.90;99.90;;;;;;4990413;28;20436;-69
2021/03/03 10:41:04;;;;;;;35.22;26.08;;;11.90;99.90;;;;;;4978870;28;20066;-69
2021/03/03 10:43:31;;;;;;;55.05;35.40;;;12.00;99.90;;;;;;4998709;28;20110;-69
2021/03/03 10:46:18;;;;;;;42.40;29.17;;;12.10;99.90;;;;;;4990458;28;20699;-69
2021/03/03 10:48:49;;;;;;;43.38;29.52;;;11.90;99.90;;;;;;4987409;28;20053;-68
2021/03/03 10:51:18;;;;;;;48.60;29.50;;;11.80;99.90;;;;;;4989080;28;20054;-69
2021/03/03 10:53:59;;;;;;;43.13;28.05;;;11.80;99.90;;;;;;4986775;28;20046;-69
2021/03/03 10:56:26;;;;;;;40.67;28.15;;;11.70;99.90;;;;;;4980139;28;20054;-69
2021/03/03 10:58:54;;;;;;;43.42;27.88;;;11.60;99.90;;;;;;4981282;28;20065;-69
2021/03/03 11:01:21;;;;;;;42.88;27.90;;;11.80;99.90;;;;;;4983593;28;20042;-69
2021/03/03 11:03:52;;;;;;;45.90;33.30;;;11.90;99.90;;;;;;4976728;28;20054;-69
2021/03/03 11:06:20;;;;;;;39.20;29.02;;;12.10;99.90;;;;;;4987702;28;20058;-69
2021/03/03 11:08:46;;;;;;;40.40;27.92;;;12.30;99.90;;;;;;4991141;28;20043;-69
2021/03/03 11:11:13;;;;;;;37.28;27.17;;;12.40;99.90;;;;;;4991719;28;20061;-69
2021/03/03 11:13:40;;;;;;;39.05;29.20;;;12.40;99.90;;;;;;4991071;28;20062;-69
2021/03/03 11:16:06;;;;;;;37.33;27.92;;;12.30;99.90;;;;;;4991983;28;20042;-70
2021/03/03 11:18:38;;;;;;;41.65;27.98;;;12.30;99.90;;;;;;4994275;28;20066;-68
2021/03/03 11:21:06;;;;;;;38.28;28.05;;;12.50;99.90;;;;;;4990912;28;20058;-69
2021/03/03 11:23:33;;;;;;;43.53;28.52;;;12.60;99.90;;;;;;4990997;28;20088;-69
2021/03/03 11:26:01;;;;;;;45.35;29.58;;;12.90;99.90;;;;;;4989993;28;20129;-68
2021/03/03 11:28:28;;;;;;;39.75;27.50;;;13.00;99.90;;;;;;4992530;28;20064;-69
2021/03/03 11:30:55;;;;;;;35.70;26.58;;;13.10;99.90;;;;;;4991350;28;20497;-69
2021/03/03 11:33:27;;;;;;;36.55;26.60;;;13.20;99.90;;;;;;4992558;28;20050;-69
2021/03/03 11:35:54;;;;;;;43.75;28.52;;;13.30;99.90;;;;;;4978883;28;20050;-69
2021/03/03 11:38:27;;;;;;;37.40;27.45;;;13.40;99.90;;;;;;4992175;28;20050;-69
2021/03/03 11:40:54;;;;;;;39.10;28.60;;;13.40;99.90;;;;;;4977386;28;20053;-69
2021/03/03 11:43:20;;;;;;;43.60;29.20;;;13.20;99.90;;;;;;4991000;28;20400;-69
2021/03/03 11:45:47;;;;;;;40.40;27.05;;;13.40;99.90;;;;;;4988479;28;20101;-69
2021/03/03 11:48:13;;;;;;;38.97;28.40;;;13.50;99.90;;;;;;4990993;28;20057;-69
2021/03/03 11:50:40;;;;;;;39.63;29.27;;;13.40;99.90;;;;;;4984545;28;20047;-69
2021/03/03 11:53:06;;;;;;;42.50;28.27;;;13.20;99.90;;;;;;4989467;28;20070;-69
2021/03/03 11:55:33;;;;;;;46.20;28.20;;;12.80;99.90;;;;;;4990793;28;20050;-69
2021/03/03 11:58:00;;;;;;;41.45;27.27;;;12.80;99.90;;;;;;4991574;28;20085;-69
2021/03/03 12:00:26;;;;;;;39.10;27.75;;;12.90;99.90;;;;;;5000051;28;20042;-69
2021/03/03 12:02:53;;;;;;;39.47;27.27;;;13.00;99.90;;;;;;4985076;28;20121;-69
2021/03/03 12:05:20;;;;;;;36.33;27.27;;;13.00;99.90;;;;;;4992051;28;20060;-68
2021/03/03 12:07:47;;;;;;;46.08;28.13;;;12.80;99.90;;;;;;4990790;28;20150;-68
2021/03/03 12:10:14;;;;;;;37.47;27.55;;;12.80;99.90;;;;;;4991167;28;20057;-68
2021/03/03 12:12:40;;;;;;;39.35;28.42;;;12.80;99.90;;;;;;4976789;28;20054;-68
2021/03/03 12:15:08;;;;;;;36.10;26.95;;;12.70;99.90;;;;;;4986886;28;20413;-68
2021/03/03 12:17:35;;;;;;;40.30;27.95;;;12.80;99.90;;;;;;4989271;28;20069;-68
2021/03/03 12:20:06;;;;;;;38.75;27.40;;;12.90;99.90;;;;;;4990101;28;20073;-68
2021/03/03 12:22:32;;;;;;;35.28;26.65;;;12.90;99.90;;;;;;4979194;28;20050;-68
2021/03/03 12:25:00;;;;;;;37.78;27.08;;;13.10;99.90;;;;;;4990994;28;20046;-68
2021/03/03 12:27:27;;;;;;;35.05;26.77;;;13.30;99.90;;;;;;4991054;28;20060;-68
2021/03/03 12:29:53;;;;;;;38.55;27.92;;;13.30;99.90;;;;;;4990663;28;20050;-72
2021/03/03 12:32:20;;;;;;;36.10;26.75;;;13.40;99.90;;;;;;4990999;28;20129;-68
2021/03/03 12:34:46;;;;;;;35.92;26.30;;;13.70;99.90;;;;;;4990629;28;20148;-68
2021/03/03 12:37:13;;;;;;;33.90;27.17;;;13.90;99.90;;;;;;4982371;28;20054;-68
2021/03/03 12:39:40;;;;;;;36.78;27.33;;;13.80;99.90;;;;;;4982273;28;20441;-68
2021/03/03 12:42:07;;;;;;;40.33;28.63;;;13.90;99.90;;;;;;4981764;28;20051;-68
2021/03/03 12:44:33;;;;;;;42.60;28.92;;;14.00;99.90;;;;;;4990462;28;20133;-68
2021/03/03 12:47:00;;;;;;;35.15;26.98;;;14.00;99.90;;;;;;4989686;28;20101;-68
2021/03/03 12:49:26;;;;;;;38.35;28.38;;;14.10;99.90;;;;;;4990387;28;20054;-69